Bury, United Kingdom
Current Conditions -  °F | °C
As of 12:20 PM on Monday 26 Jan 2015 (Local Time) from EGCC Reporting Station
Broken Clouds Broken Clouds  
Wind Chill: 38°   Ceiling: 2200
Heat Index: 45°   Visibility: 6mi
Dew Point: 37°   Wind: 15mph
Humidity: 76%   Direction: 290°WNW
Pressure: 30.21"   Gusts: 38mph
Location:  53.59°N, 2.3°W
Report Text: EGCC 261220Z 29013G33KT 260V320 9999 FEW017 BKN022 07/03 Q1023 NOSIG
Loading
Personal Weather Stations






























Interactive Weather Map New forecast layout! Learn more

10-Day Weather Forecast

Advertisements
Track Severe Weather on mobile